Time;durP1;ratioP1;P1;durP2;ratioP2;P2;SDS_P1;SDS_P2;PMS_P1;PMS_P2;Temp;Humidity;BMP_temperature;BMP_pressure;BME280_temperature;BME280_humidity;BME280_pressure;Samples;Min_cycle;Max_cycle;Signal;HPM_P1;HPM_P2
2023/12/20 00:01:47;;;;;;;28.80;16.75;;;7.60;99.90;;;;;;4990966;28;20038;-86
2023/12/20 00:04:13;;;;;;;40.40;19.30;;;7.60;99.90;;;;;;4990647;28;20022;-88
2023/12/20 00:06:38;;;;;;;28.60;15.95;;;7.50;99.90;;;;;;4989599;28;20033;-88
2023/12/20 00:09:04;;;;;;;26.15;14.63;;;7.60;99.90;;;;;;5007896;28;20044;-88
2023/12/20 00:11:30;;;;;;;29.38;16.88;;;7.60;99.90;;;;;;4992185;28;20038;-89
2023/12/20 00:13:55;;;;;;;22.73;11.85;;;7.50;99.90;;;;;;4987598;28;20041;-88
2023/12/20 00:16:21;;;;;;;32.33;14.40;;;7.50;99.90;;;;;;4992021;28;20141;-88
2023/12/20 00:18:47;;;;;;;25.20;14.35;;;7.50;99.90;;;;;;4994953;28;20038;-86
2023/12/20 00:21:13;;;;;;;30.85;16.15;;;7.50;99.90;;;;;;4991108;28;20037;-86
2023/12/20 00:23:39;;;;;;;30.08;15.52;;;7.50;99.90;;;;;;4989508;28;20037;-86
2023/12/20 00:26:05;;;;;;;24.98;12.07;;;7.60;99.90;;;;;;5006796;28;20037;-84
2023/12/20 00:28:30;;;;;;;33.88;17.23;;;7.50;99.90;;;;;;4987623;28;20046;-85
2023/12/20 00:30:56;;;;;;;34.17;16.05;;;7.40;99.90;;;;;;4992970;28;20060;-87
2023/12/20 00:33:21;;;;;;;28.42;14.60;;;7.50;99.90;;;;;;4991794;28;20049;-86
2023/12/20 00:35:47;;;;;;;33.30;16.83;;;7.50;99.90;;;;;;5006228;28;20038;-87
2023/12/20 00:38:12;;;;;;;35.15;17.05;;;7.40;99.90;;;;;;4987833;28;20038;-88
2023/12/20 00:40:38;;;;;;;27.80;14.65;;;7.40;99.90;;;;;;4986805;28;20795;-87
2023/12/20 00:43:03;;;;;;;25.70;14.02;;;7.30;99.90;;;;;;5002336;28;20037;-89
2023/12/20 00:45:29;;;;;;;28.70;15.85;;;7.20;99.90;;;;;;4993180;28;20041;-83
2023/12/20 00:47:55;;;;;;;26.40;13.18;;;7.30;99.90;;;;;;4990235;28;20045;-89
2023/12/20 00:50:21;;;;;;;30.08;12.02;;;7.30;99.90;;;;;;4989357;28;20377;-89
2023/12/20 00:52:47;;;;;;;27.50;12.85;;;7.30;99.90;;;;;;4984642;28;20038;-89
2023/12/20 00:55:13;;;;;;;23.20;12.27;;;7.20;99.90;;;;;;4992964;28;20033;-90
2023/12/20 00:57:39;;;;;;;34.40;13.85;;;7.30;99.90;;;;;;4992313;28;20033;-89
2023/12/20 01:00:05;;;;;;;27.35;12.80;;;7.20;99.90;;;;;;4990147;28;20050;-87
2023/12/20 01:02:31;;;;;;;24.40;11.43;;;7.20;99.90;;;;;;4992892;28;20038;-87
2023/12/20 01:04:57;;;;;;;27.05;12.75;;;7.20;99.90;;;;;;4992938;28;20064;-90
2023/12/20 01:07:22;;;;;;;26.85;11.18;;;7.10;99.90;;;;;;4987239;28;20034;-89
2023/12/20 01:09:49;;;;;;;17.95;9.88;;;7.10;99.90;;;;;;4994625;28;20093;-88
2023/12/20 01:12:14;;;;;;;25.75;10.43;;;7.20;99.90;;;;;;4993707;28;20033;-89
2023/12/20 01:14:40;;;;;;;24.92;9.68;;;7.20;99.90;;;;;;4994872;28;20053;-86
2023/12/20 01:17:06;;;;;;;17.67;9.82;;;7.10;99.90;;;;;;4987144;28;20037;-89
2023/12/20 01:19:31;;;;;;;21.98;7.72;;;7.10;99.90;;;;;;5005688;28;20030;-87
2023/12/20 01:21:57;;;;;;;24.52;9.45;;;7.10;99.90;;;;;;4994614;28;20034;-86
2023/12/20 01:24:22;;;;;;;19.70;9.88;;;7.20;99.90;;;;;;4993230;28;20034;-86
2023/12/20 01:26:48;;;;;;;22.88;9.48;;;7.10;99.90;;;;;;5006436;28;20097;-89
2023/12/20 01:29:14;;;;;;;19.17;9.70;;;7.00;99.90;;;;;;4998308;28;20057;-90
2023/12/20 01:31:43;;;;;;;20.50;9.27;;;7.00;99.90;;;;;;4989508;28;20053;-90
2023/12/20 01:34:08;;;;;;;18.98;9.43;;;7.00;99.90;;;;;;4992979;28;20501;-86
2023/12/20 01:36:34;;;;;;;18.80;6.97;;;6.90;99.90;;;;;;4988604;28;20085;-89
2023/12/20 01:38:59;;;;;;;21.60;9.65;;;7.00;99.90;;;;;;4992908;28;20034;-88
2023/12/20 01:41:25;;;;;;;27.48;9.20;;;6.90;99.90;;;;;;4992163;28;20032;-86
2023/12/20 01:43:52;;;;;;;25.23;9.10;;;6.80;99.90;;;;;;4989629;28;20041;-86
2023/12/20 01:46:18;;;;;;;20.42;9.02;;;6.90;99.90;;;;;;4986287;28;20029;-89
2023/12/20 01:48:44;;;;;;;16.15;6.90;;;6.90;99.90;;;;;;4981204;28;20042;-87
2023/12/20 01:51:10;;;;;;;22.40;10.77;;;6.90;99.90;;;;;;5003151;28;20050;-87
2023/12/20 01:53:35;;;;;;;27.10;10.27;;;6.90;99.90;;;;;;4984818;28;20030;-83
2023/12/20 01:56:01;;;;;;;22.70;8.15;;;6.80;99.90;;;;;;4989071;28;20034;-81
2023/12/20 01:58:26;;;;;;;17.17;9.82;;;6.90;99.90;;;;;;4972024;28;20052;-84
2023/12/20 02:00:52;;;;;;;27.67;10.00;;;6.90;99.90;;;;;;4987944;28;20066;-82
2023/12/20 02:03:18;;;;;;;25.88;10.27;;;6.80;99.90;;;;;;4988929;28;20072;-83
2023/12/20 02:05:43;;;;;;;19.52;9.23;;;7.00;99.90;;;;;;4988600;28;20036;-84
2023/12/20 02:08:09;;;;;;;25.33;10.63;;;6.80;99.90;;;;;;4984331;28;20045;-84
2023/12/20 02:10:34;;;;;;;7.47;3.65;;;6.70;99.90;;;;;;4988191;28;20041;-84
2023/12/20 02:13:00;;;;;;;24.42;9.48;;;6.80;99.90;;;;;;4988712;28;20042;-82
2023/12/20 02:15:25;;;;;;;24.88;10.27;;;6.60;99.90;;;;;;4985428;28;20068;-84
2023/12/20 02:17:51;;;;;;;13.45;6.32;;;6.50;99.90;;;;;;5002292;28;20144;-81
2023/12/20 02:20:17;;;;;;;17.88;8.23;;;6.60;99.90;;;;;;4985103;28;20034;-82
2023/12/20 02:22:42;;;;;;;22.98;6.50;;;6.40;99.90;;;;;;5000648;28;20054;-82
2023/12/20 02:25:09;;;;;;;15.07;6.20;;;6.40;99.90;;;;;;5000510;28;20098;-83
2023/12/20 02:27:35;;;;;;;16.05;6.90;;;6.40;99.90;;;;;;4998028;28;20038;-83
2023/12/20 02:30:00;;;;;;;14.27;6.97;;;6.50;99.90;;;;;;4979757;28;20034;-83
2023/12/20 02:32:26;;;;;;;17.52;7.20;;;6.50;99.90;;;;;;5004792;28;20059;-83
2023/12/20 02:34:51;;;;;;;15.52;6.35;;;6.40;99.90;;;;;;4985150;28;21145;-83
2023/12/20 02:37:17;;;;;;;22.08;8.27;;;6.40;99.90;;;;;;4987080;28;20034;-83
2023/12/20 02:39:44;;;;;;;14.18;6.75;;;6.40;99.90;;;;;;4984739;28;20060;-83
2023/12/20 02:42:09;;;;;;;18.52;6.03;;;6.40;99.90;;;;;;4985496;28;20038;-84
2023/12/20 02:44:36;;;;;;;14.02;5.35;;;6.40;99.90;;;;;;4983703;28;20787;-83
2023/12/20 02:47:02;;;;;;;10.45;4.45;;;6.50;99.90;;;;;;4988020;28;20071;-83
2023/12/20 02:49:27;;;;;;;16.00;5.85;;;6.40;99.90;;;;;;4984884;28;20046;-83
2023/12/20 02:51:54;;;;;;;21.67;7.20;;;6.40;99.90;;;;;;4998349;28;20053;-84
2023/12/20 02:54:20;;;;;;;11.15;4.45;;;6.40;99.90;;;;;;4984455;28;20092;-83
2023/12/20 02:56:45;;;;;;;11.63;4.53;;;6.40;99.90;;;;;;5002634;28;20030;-82
2023/12/20 02:59:11;;;;;;;18.40;7.00;;;6.40;99.90;;;;;;4984616;28;20065;-83
2023/12/20 03:01:42;;;;;;;13.90;5.97;;;6.40;99.90;;;;;;4987653;28;20033;-83
2023/12/20 03:04:07;;;;;;;15.02;5.50;;;6.40;99.90;;;;;;5002481;28;20090;-88
2023/12/20 03:06:33;;;;;;;14.50;6.95;;;6.40;99.90;;;;;;5004326;28;20023;-84
2023/12/20 03:08:58;;;;;;;18.13;7.78;;;6.40;99.90;;;;;;4990785;28;20046;-88
2023/12/20 03:11:27;;;;;;;11.70;6.03;;;6.40;99.90;;;;;;4990767;28;20041;-87
2023/12/20 03:13:53;;;;;;;12.07;4.88;;;6.40;99.90;;;;;;4993199;28;20046;-89
2023/12/20 03:16:18;;;;;;;7.03;3.35;;;6.30;99.90;;;;;;4996201;28;20057;-89
2023/12/20 03:18:44;;;;;;;14.40;4.57;;;6.40;99.90;;;;;;4988384;28;20510;-89
2023/12/20 03:21:09;;;;;;;17.23;7.13;;;6.40;99.90;;;;;;4994897;28;20462;-86
2023/12/20 03:23:35;;;;;;;13.02;4.03;;;6.30;99.90;;;;;;4995143;28;20045;-86
2023/12/20 03:26:01;;;;;;;16.70;5.95;;;6.40;99.90;;;;;;5000087;28;20033;-90
2023/12/20 03:28:27;;;;;;;12.45;4.15;;;6.30;99.90;;;;;;4992838;28;20034;-84
2023/12/20 03:30:53;;;;;;;17.67;4.70;;;6.30;99.90;;;;;;5008885;28;20034;-86
2023/12/20 03:33:18;;;;;;;6.82;4.68;;;6.20;99.90;;;;;;4994300;28;20038;-90
2023/12/20 03:35:44;;;;;;;11.20;6.25;;;6.30;99.90;;;;;;4997672;28;20033;-86
2023/12/20 03:38:10;;;;;;;17.83;5.40;;;6.30;99.90;;;;;;4992080;28;20049;-85
2023/12/20 03:40:35;;;;;;;5.93;3.45;;;6.20;99.90;;;;;;5014503;28;20039;-86
2023/12/20 03:43:01;;;;;;;11.73;5.07;;;6.20;99.90;;;;;;5004674;28;20060;-89
2023/12/20 03:45:26;;;;;;;10.80;4.40;;;6.10;99.90;;;;;;4987718;28;20038;-89
2023/12/20 03:47:56;;;;;;;15.20;4.32;;;6.10;99.90;;;;;;4995262;28;20039;-89
2023/12/20 03:50:25;;;;;;;19.98;7.00;;;6.10;99.90;;;;;;4996465;28;20040;-89
2023/12/20 03:52:50;;;;;;;11.20;4.65;;;6.10;99.90;;;;;;4994011;28;20025;-87
2023/12/20 03:55:16;;;;;;;7.35;3.47;;;6.10;99.90;;;;;;5008291;28;20034;-87
2023/12/20 03:57:41;;;;;;;22.20;6.68;;;6.00;99.90;;;;;;5005996;28;20094;-90
2023/12/20 04:00:11;;;;;;;27.77;6.50;;;6.10;99.90;;;;;;5010355;28;20033;-89
2023/12/20 04:02:43;;;;;;;23.75;7.50;;;6.10;99.90;;;;;;4997564;28;20050;-84
2023/12/20 04:05:09;;;;;;;13.65;4.72;;;6.10;99.90;;;;;;4992392;28;20033;-86
2023/12/20 04:07:35;;;;;;;7.95;3.05;;;6.00;99.90;;;;;;4995063;28;20046;-86
2023/12/20 04:10:01;;;;;;;24.00;6.03;;;6.00;99.90;;;;;;4980693;28;20030;-90
2023/12/20 04:12:32;;;;;;;20.83;6.07;;;5.90;99.90;;;;;;4975954;28;20048;-89
2023/12/20 04:15:09;;;;;;;9.48;3.80;;;5.90;99.90;;;;;;4986932;28;20038;-84
2023/12/20 04:17:36;;;;;;;17.60;4.43;;;5.90;99.90;;;;;;4990720;28;20045;-82
2023/12/20 04:20:02;;;;;;;16.77;4.63;;;5.80;99.90;;;;;;4988424;28;20049;-83
2023/12/20 04:22:27;;;;;;;17.65;3.58;;;5.80;99.90;;;;;;5001654;28;20100;-84
2023/12/20 04:24:53;;;;;;;28.08;6.05;;;5.80;99.90;;;;;;4984527;28;20029;-83
2023/12/20 04:27:19;;;;;;;19.52;7.43;;;5.70;99.90;;;;;;5000247;28;20058;-84
2023/12/20 04:29:44;;;;;;;21.85;6.97;;;5.70;99.90;;;;;;5003011;28;20034;-83
2023/12/20 04:32:10;;;;;;;17.98;6.40;;;5.70;99.90;;;;;;4991498;28;20048;-84
2023/12/20 04:34:36;;;;;;;10.25;4.22;;;5.80;99.90;;;;;;5003032;28;20018;-84
2023/12/20 04:37:02;;;;;;;10.00;4.13;;;5.60;99.90;;;;;;4986654;28;20045;-83
2023/12/20 04:39:27;;;;;;;6.50;3.50;;;5.70;99.90;;;;;;5002072;28;20038;-83
2023/12/20 04:41:53;;;;;;;24.33;8.65;;;5.80;99.90;;;;;;4989009;28;20026;-84
2023/12/20 04:44:18;;;;;;;17.60;5.38;;;5.70;99.90;;;;;;4979842;28;20046;-84
2023/12/20 04:46:44;;;;;;;14.65;4.93;;;5.70;99.90;;;;;;4990626;28;20037;-83
2023/12/20 04:49:09;;;;;;;13.18;5.32;;;5.80;99.90;;;;;;4999797;28;20041;-83
2023/12/20 04:51:35;;;;;;;17.65;6.35;;;5.80;99.90;;;;;;4987291;28;20068;-82
2023/12/20 04:54:01;;;;;;;13.93;5.40;;;5.70;99.90;;;;;;4988125;28;20102;-83
2023/12/20 04:56:28;;;;;;;25.00;7.47;;;5.70;99.90;;;;;;4988563;28;20034;-83
2023/12/20 04:58:54;;;;;;;21.67;7.90;;;5.80;99.90;;;;;;4981779;28;20045;-83
2023/12/20 05:01:20;;;;;;;15.13;5.40;;;5.80;99.90;;;;;;5003065;28;20093;-82
2023/12/20 05:03:46;;;;;;;16.30;6.47;;;5.70;99.90;;;;;;4987567;28;20037;-81
2023/12/20 05:06:11;;;;;;;24.60;7.55;;;5.80;99.90;;;;;;5002339;28;20038;-83
2023/12/20 05:08:37;;;;;;;15.77;7.57;;;5.80;99.90;;;;;;4986777;28;20045;-83
2023/12/20 05:11:02;;;;;;;20.40;7.05;;;5.80;99.90;;;;;;4985126;28;20037;-83
2023/12/20 05:13:28;;;;;;;12.50;5.07;;;5.80;99.90;;;;;;4990335;28;20050;-83
2023/12/20 05:15:54;;;;;;;27.45;5.63;;;5.80;99.90;;;;;;4984053;28;20037;-83
2023/12/20 05:18:20;;;;;;;18.02;7.03;;;5.80;99.90;;;;;;4989717;28;20469;-83
2023/12/20 05:20:46;;;;;;;20.38;5.82;;;5.80;99.90;;;;;;4988010;28;20062;-82
2023/12/20 05:23:13;;;;;;;17.02;4.30;;;5.70;99.90;;;;;;5001381;28;20489;-83
2023/12/20 05:25:39;;;;;;;19.45;6.32;;;5.80;99.90;;;;;;4976641;28;20076;-85
2023/12/20 05:28:05;;;;;;;15.32;5.97;;;5.80;99.90;;;;;;5001098;28;20034;-87
2023/12/20 05:30:30;;;;;;;16.25;5.28;;;5.70;99.90;;;;;;4967982;28;20034;-87
2023/12/20 05:32:56;;;;;;;13.80;4.78;;;5.80;99.90;;;;;;4984405;28;20050;-86
2023/12/20 05:35:23;;;;;;;14.43;6.38;;;5.80;99.90;;;;;;5002970;28;20041;-86
2023/12/20 05:37:49;;;;;;;15.27;5.75;;;5.70;99.90;;;;;;5003454;28;20040;-87
2023/12/20 05:40:15;;;;;;;8.45;3.75;;;5.70;99.90;;;;;;4987030;28;20033;-89
2023/12/20 05:42:40;;;;;;;15.50;5.03;;;5.70;99.90;;;;;;5006972;28;20033;-85
2023/12/20 05:45:06;;;;;;;21.58;6.15;;;5.70;99.90;;;;;;4988194;28;20049;-88
2023/12/20 05:47:32;;;;;;;18.63;6.57;;;5.70;99.90;;;;;;4998153;28;20065;-88
2023/12/20 05:49:58;;;;;;;12.27;4.93;;;5.70;99.90;;;;;;4990834;28;20105;-88
2023/12/20 05:52:24;;;;;;;12.00;4.75;;;5.70;99.90;;;;;;4987690;28;20421;-86
2023/12/20 05:54:49;;;;;;;19.98;8.73;;;5.80;99.90;;;;;;4993117;28;20034;-88
2023/12/20 05:57:15;;;;;;;14.60;6.75;;;5.80;99.90;;;;;;4987419;28;20366;-87
2023/12/20 05:59:41;;;;;;;10.23;4.63;;;5.80;99.90;;;;;;4994052;28;20040;-86
2023/12/20 06:02:06;;;;;;;18.05;4.53;;;5.80;99.90;;;;;;4994194;28;20066;-86
2023/12/20 06:04:32;;;;;;;20.83;6.47;;;5.70;99.90;;;;;;4974657;28;20038;-85
2023/12/20 06:06:59;;;;;;;7.93;3.88;;;5.80;99.90;;;;;;4989126;28;20101;-86
2023/12/20 06:09:26;;;;;;;14.68;6.22;;;5.70;99.90;;;;;;4990233;28;20065;-87
2023/12/20 06:11:55;;;;;;;23.30;9.52;;;5.70;99.90;;;;;;4992221;28;20046;-84
2023/12/20 06:14:22;;;;;;;13.70;6.10;;;5.90;99.90;;;;;;4990170;28;20061;-85
2023/12/20 06:16:47;;;;;;;17.30;6.45;;;5.70;99.90;;;;;;4992062;28;20163;-85
2023/12/20 06:19:13;;;;;;;17.00;5.18;;;5.70;99.90;;;;;;4990452;28;20038;-89
2023/12/20 06:21:39;;;;;;;19.40;6.43;;;5.80;99.90;;;;;;5004522;28;20030;-82
2023/12/20 06:24:05;;;;;;;20.50;6.72;;;5.70;99.90;;;;;;5004377;28;20057;-88
2023/12/20 06:26:31;;;;;;;13.75;5.75;;;5.80;99.90;;;;;;5002529;28;20072;-85
2023/12/20 06:29:03;;;;;;;14.73;4.25;;;5.70;99.90;;;;;;4990623;28;20071;-88
2023/12/20 06:31:29;;;;;;;14.25;6.18;;;5.80;99.90;;;;;;5005879;28;20170;-85
2023/12/20 06:33:57;;;;;;;12.63;5.93;;;5.70;99.90;;;;;;4992092;28;20049;-83
2023/12/20 06:36:24;;;;;;;17.70;7.50;;;5.70;99.90;;;;;;4984169;28;20278;-83
2023/12/20 06:38:50;;;;;;;12.75;6.85;;;5.70;99.90;;;;;;5002426;28;20048;-84
2023/12/20 06:41:16;;;;;;;15.65;6.40;;;5.70;99.90;;;;;;4989833;28;20058;-82
2023/12/20 06:43:42;;;;;;;12.40;5.53;;;5.70;99.90;;;;;;4982962;28;20125;-82
2023/12/20 06:46:08;;;;;;;13.57;4.88;;;5.70;99.90;;;;;;4991557;28;20033;-83
2023/12/20 06:48:34;;;;;;;17.75;6.40;;;5.70;99.90;;;;;;4974235;28;20030;-83
2023/12/20 06:51:00;;;;;;;19.10;4.75;;;5.70;99.90;;;;;;4988481;28;20038;-83
2023/12/20 06:53:26;;;;;;;10.70;5.32;;;5.70;99.90;;;;;;5007078;28;20034;-84
2023/12/20 06:55:51;;;;;;;19.23;6.45;;;5.90;99.90;;;;;;4990896;28;20566;-84
2023/12/20 06:58:17;;;;;;;11.82;5.38;;;5.90;99.90;;;;;;4982488;28;20053;-83
2023/12/20 07:00:42;;;;;;;14.55;5.05;;;5.80;99.90;;;;;;5004605;28;20072;-84
2023/12/20 07:03:09;;;;;;;14.05;5.60;;;5.70;99.90;;;;;;4993191;28;20038;-84
2023/12/20 07:05:34;;;;;;;17.45;4.47;;;5.70;99.90;;;;;;4986323;28;20069;-84
2023/12/20 07:08:00;;;;;;;12.23;4.18;;;5.80;99.90;;;;;;4989015;28;20049;-84
2023/12/20 07:10:26;;;;;;;20.40;4.70;;;5.80;99.90;;;;;;4985606;28;20041;-84
2023/12/20 07:12:52;;;;;;;20.63;7.60;;;5.80;99.90;;;;;;4992757;28;20124;-83
2023/12/20 07:15:18;;;;;;;12.73;5.75;;;5.80;99.90;;;;;;5002149;28;20041;-84
2023/12/20 07:17:43;;;;;;;19.63;7.45;;;5.80;99.90;;;;;;4988796;28;20029;-83
2023/12/20 07:20:10;;;;;;;15.73;5.72;;;5.80;99.90;;;;;;4994974;28;20108;-84
2023/12/20 07:22:36;;;;;;;20.27;7.80;;;5.80;99.90;;;;;;4989075;28;20109;-84
2023/12/20 07:25:02;;;;;;;18.88;6.15;;;5.80;99.90;;;;;;4989304;28;20040;-84
2023/12/20 07:27:27;;;;;;;20.20;6.38;;;5.80;99.90;;;;;;4990183;28;20042;-84
2023/12/20 07:29:53;;;;;;;15.07;6.30;;;5.90;99.90;;;;;;4988863;28;20034;-83
2023/12/20 07:32:18;;;;;;;24.35;7.30;;;5.80;99.90;;;;;;4992361;28;20037;-83
2023/12/20 07:34:44;;;;;;;13.38;4.32;;;5.80;99.90;;;;;;4989952;28;20053;-83
2023/12/20 07:37:11;;;;;;;11.05;4.93;;;5.90;99.90;;;;;;4990041;28;20089;-84
2023/12/20 07:39:40;;;;;;;17.48;8.43;;;5.90;99.90;;;;;;4986249;28;20034;-83
2023/12/20 07:42:06;;;;;;;16.13;5.20;;;5.90;99.90;;;;;;4989030;28;20583;-83
2023/12/20 07:44:31;;;;;;;11.82;4.18;;;5.80;99.90;;;;;;4984137;28;20022;-84
2023/12/20 07:46:57;;;;;;;8.73;3.85;;;5.90;99.90;;;;;;4985220;28;20042;-83
2023/12/20 07:49:23;;;;;;;10.70;4.75;;;5.90;99.90;;;;;;4989935;28;20036;-83
2023/12/20 07:51:49;;;;;;;16.25;5.82;;;5.90;99.90;;;;;;4987743;28;20057;-83
2023/12/20 07:54:15;;;;;;;18.88;6.68;;;5.90;99.90;;;;;;4974446;28;20061;-85
2023/12/20 07:56:41;;;;;;;26.58;7.57;;;6.00;99.90;;;;;;4986305;28;20036;-83
2023/12/20 07:59:07;;;;;;;13.18;4.25;;;6.00;99.90;;;;;;4970824;28;20034;-84
2023/12/20 08:01:38;;;;;;;15.20;5.10;;;5.90;99.90;;;;;;4990963;28;20030;-84
2023/12/20 08:04:04;;;;;;;9.63;3.85;;;6.00;99.90;;;;;;4998651;28;20115;-85
2023/12/20 08:06:30;;;;;;;21.10;6.70;;;6.00;99.90;;;;;;4985113;28;20043;-84
2023/12/20 08:08:57;;;;;;;9.23;4.57;;;5.90;99.90;;;;;;4990495;28;20406;-85
2023/12/20 08:11:24;;;;;;;12.95;4.05;;;6.00;99.90;;;;;;4983699;28;20041;-84
2023/12/20 08:13:49;;;;;;;12.05;3.30;;;6.00;99.90;;;;;;4987530;28;20064;-84
2023/12/20 08:16:17;;;;;;;20.48;4.85;;;6.00;99.90;;;;;;4975187;28;20486;-85
2023/12/20 08:18:43;;;;;;;21.10;6.18;;;6.10;99.90;;;;;;4987534;28;20057;-84
2023/12/20 08:21:08;;;;;;;21.23;8.02;;;6.00;99.90;;;;;;4964216;28;20030;-86
2023/12/20 08:23:36;;;;;;;12.15;4.97;;;6.00;99.90;;;;;;4989601;28;20045;-84
2023/12/20 08:26:07;;;;;;;17.38;5.97;;;6.10;99.90;;;;;;4982669;28;20026;-84
2023/12/20 08:28:33;;;;;;;23.45;7.10;;;6.10;99.90;;;;;;4984094;28;20069;-84
2023/12/20 08:30:59;;;;;;;13.93;4.75;;;6.10;99.90;;;;;;4988119;28;20506;-83
2023/12/20 08:33:25;;;;;;;14.63;5.22;;;6.10;99.90;;;;;;4982195;28;20069;-83
2023/12/20 08:35:51;;;;;;;11.65;3.65;;;6.10;99.90;;;;;;4987043;28;20034;-83
2023/12/20 08:38:17;;;;;;;15.65;5.38;;;6.10;99.90;;;;;;4977031;28;20109;-83
2023/12/20 08:40:43;;;;;;;19.95;6.20;;;6.10;99.90;;;;;;4973141;28;20096;-83
2023/12/20 08:43:08;;;;;;;20.30;6.93;;;6.10;99.90;;;;;;4970992;28;20397;-83
2023/12/20 08:45:34;;;;;;;14.65;5.63;;;6.10;99.90;;;;;;4987156;28;20034;-83
2023/12/20 08:48:00;;;;;;;23.85;8.13;;;6.20;99.90;;;;;;4987613;28;20057;-83
2023/12/20 08:50:25;;;;;;;14.73;5.22;;;6.20;99.90;;;;;;4988764;28;20034;-84
2023/12/20 08:52:51;;;;;;;23.90;8.80;;;6.20;99.90;;;;;;4988227;28;20034;-83
2023/12/20 08:55:18;;;;;;;13.13;5.95;;;6.20;99.90;;;;;;4974090;28;20045;-82
2023/12/20 08:57:43;;;;;;;24.35;8.75;;;6.20;99.90;;;;;;4968401;28;20037;-82
2023/12/20 09:00:10;;;;;;;11.57;5.53;;;6.30;99.90;;;;;;4973177;28;20022;-82
2023/12/20 09:02:36;;;;;;;15.88;5.90;;;6.20;99.90;;;;;;4977907;28;20030;-82
2023/12/20 09:05:02;;;;;;;12.82;3.72;;;6.20;99.90;;;;;;4976005;28;20037;-83
2023/12/20 09:07:30;;;;;;;12.05;4.75;;;6.20;99.90;;;;;;4990628;28;20124;-84
2023/12/20 09:09:55;;;;;;;16.17;5.10;;;6.30;99.90;;;;;;4993816;28;20033;-83
2023/12/20 09:12:21;;;;;;;10.80;4.43;;;6.30;99.90;;;;;;4983606;28;20034;-83
2023/12/20 09:14:47;;;;;;;24.05;6.57;;;6.20;99.90;;;;;;4983024;28;20125;-83
2023/12/20 09:17:13;;;;;;;19.77;5.25;;;6.30;99.90;;;;;;4984229;28;20030;-83
2023/12/20 09:19:39;;;;;;;25.85;5.63;;;6.30;99.90;;;;;;4980884;28;20034;-83
2023/12/20 09:22:05;;;;;;;7.22;3.22;;;6.30;99.90;;;;;;4986331;28;20097;-83
2023/12/20 09:24:30;;;;;;;15.45;5.82;;;6.30;99.90;;;;;;4983714;28;20050;-82
2023/12/20 09:26:56;;;;;;;9.27;4.50;;;6.40;99.90;;;;;;5001136;28;20033;-84
2023/12/20 09:29:22;;;;;;;10.30;3.90;;;6.40;99.90;;;;;;5010142;28;20064;-82
2023/12/20 09:31:50;;;;;;;28.45;3.55;;;6.40;99.90;;;;;;4982608;28;20053;-84
2023/12/20 09:34:25;;;;;;;21.35;5.15;;;6.40;99.90;;;;;;4980497;28;20469;-82
2023/12/20 09:36:51;;;;;;;14.43;4.47;;;6.40;99.90;;;;;;4986004;28;20060;-84
2023/12/20 09:39:20;;;;;;;7.63;3.13;;;6.40;99.90;;;;;;4989357;28;20042;-81
2023/12/20 09:42:00;;;;;;;13.25;3.78;;;6.60;99.90;;;;;;4981816;28;20041;-84
2023/12/20 09:44:42;;;;;;;10.73;4.60;;;6.50;99.90;;;;;;4959954;28;20514;-84
2023/12/20 09:47:37;;;;;;;14.23;4.10;;;6.50;99.90;;;;;;4950579;28;20061;-87
2023/12/20 09:50:03;;;;;;;15.18;3.75;;;6.50;99.90;;;;;;4954912;28;20041;-87
2023/12/20 09:52:28;;;;;;;19.52;3.10;;;6.60;99.90;;;;;;4978002;28;20045;-85
2023/12/20 09:54:55;;;;;;;11.48;3.53;;;6.50;99.90;;;;;;4977437;28;20026;-86
2023/12/20 09:57:21;;;;;;;9.77;4.40;;;6.60;99.90;;;;;;4998626;28;20102;-86
2023/12/20 09:59:48;;;;;;;18.00;3.22;;;6.60;99.90;;;;;;5006255;28;20030;-84
2023/12/20 10:02:16;;;;;;;14.52;3.45;;;6.60;99.90;;;;;;4986654;28;20045;-84
2023/12/20 10:04:51;;;;;;;12.18;3.42;;;6.70;99.90;;;;;;4984901;28;20121;-87
2023/12/20 10:07:17;;;;;;;11.52;3.10;;;6.60;99.90;;;;;;4975041;28;20029;-87
2023/12/20 10:09:45;;;;;;;13.15;4.35;;;6.70;99.90;;;;;;4987955;28;20030;-87
2023/12/20 10:12:10;;;;;;;21.17;5.07;;;6.70;99.90;;;;;;4966414;28;20030;-87
2023/12/20 10:14:36;;;;;;;20.40;5.35;;;6.60;99.90;;;;;;4964033;28;20053;-87
2023/12/20 10:17:03;;;;;;;12.65;3.30;;;6.70;99.90;;;;;;4986384;28;20061;-88
2023/12/20 10:19:29;;;;;;;18.45;3.97;;;6.70;99.90;;;;;;4989399;28;20034;-89
2023/12/20 10:22:08;;;;;;;;;;;;;;;;;;;;;
2023/12/20 10:24:34;;;;;;;8.40;3.25;;;6.70;99.90;;;;;;4986107;28;20533;-87
2023/12/20 10:27:10;;;;;;;11.60;3.60;;;6.70;99.90;;;;;;4954843;28;20018;-87
2023/12/20 10:29:39;;;;;;;8.27;3.00;;;6.80;99.90;;;;;;4965636;28;20117;-88
2023/12/20 10:32:33;;;;;;;14.38;4.38;;;6.70;99.90;;;;;;4974834;28;20060;-87
2023/12/20 10:38:18;;;;;;;10.88;3.42;;;6.90;99.90;;;;;;5442686;23;20053;-86
2023/12/20 10:40:47;;;;;;;16.65;5.25;;;6.80;99.90;;;;;;4977626;28;20112;-88
2023/12/20 10:43:26;;;;;;;14.95;3.75;;;6.80;99.90;;;;;;5014759;28;20451;-87
2023/12/20 10:45:52;;;;;;;16.58;4.78;;;6.80;99.90;;;;;;4996707;28;20030;-87
2023/12/20 10:48:29;;;;;;;11.45;3.78;;;6.80;99.90;;;;;;4979642;28;20049;-87
2023/12/20 10:50:56;;;;;;;15.00;5.10;;;6.80;99.90;;;;;;5006291;28;20061;-86
2023/12/20 10:53:25;;;;;;;15.10;3.63;;;6.80;99.90;;;;;;5000075;28;20049;-89
2023/12/20 10:56:01;;;;;;;9.70;4.53;;;6.90;99.90;;;;;;5010926;28;20026;-88
2023/12/20 10:58:27;;;;;;;13.70;4.20;;;6.90;99.90;;;;;;5007744;28;20057;-89
2023/12/20 11:00:57;;;;;;;12.55;3.13;;;6.90;99.90;;;;;;5008777;28;20044;-88
2023/12/20 11:03:24;;;;;;;7.88;3.60;;;6.90;99.90;;;;;;5004477;28;20037;-88
2023/12/20 11:06:09;;;;;;;7.03;3.20;;;6.90;99.90;;;;;;4996607;28;20025;-88
2023/12/20 11:09:12;;;;;;;12.98;4.25;;;6.90;99.90;;;;;;5041857;28;20083;-87
2023/12/20 11:11:59;;;;;;;15.25;4.97;;;6.90;99.90;;;;;;5017191;28;20551;-85
2023/12/20 11:14:50;;;;;;;7.93;2.85;;;6.90;99.90;;;;;;4998487;28;20066;-87
2023/12/20 11:17:21;;;;;;;17.15;5.57;;;6.90;99.90;;;;;;5001536;28;20037;-85
2023/12/20 11:19:53;;;;;;;12.07;3.70;;;6.90;99.90;;;;;;5019113;28;20052;-87
2023/12/20 11:22:41;;;;;;;13.55;4.45;;;6.90;99.90;;;;;;5037661;28;20029;-85
2023/12/20 11:25:10;;;;;;;15.00;5.05;;;6.90;99.90;;;;;;5019775;28;20033;-84
2023/12/20 11:27:37;;;;;;;15.65;5.40;;;6.90;99.90;;;;;;5041730;28;20232;-84
2023/12/20 11:30:07;;;;;;;14.15;2.55;;;6.90;99.90;;;;;;5023412;28;20029;-84
2023/12/20 11:32:36;;;;;;;12.55;3.47;;;6.90;99.90;;;;;;5026048;28;20223;-87
2023/12/20 11:35:08;;;;;;;13.20;5.38;;;6.90;99.90;;;;;;5012350;28;20049;-88
2023/12/20 11:37:37;;;;;;;14.65;4.22;;;6.80;99.90;;;;;;5062583;28;20045;-87
2023/12/20 11:40:07;;;;;;;15.00;3.70;;;6.90;99.90;;;;;;5012198;28;20033;-85
2023/12/20 11:42:40;;;;;;;18.13;5.88;;;6.90;99.90;;;;;;5004376;28;20037;-86
2023/12/20 11:45:22;;;;;;;14.40;4.57;;;6.90;99.90;;;;;;5009161;28;20026;-87
2023/12/20 11:47:54;;;;;;;25.17;6.07;;;7.00;99.90;;;;;;5021615;28;20044;-89
2023/12/20 11:50:30;;;;;;;10.45;2.65;;;6.90;99.90;;;;;;5012775;28;20036;-86
2023/12/20 11:53:04;;;;;;;14.00;4.95;;;7.00;99.90;;;;;;5017236;28;20029;-87
2023/12/20 11:59:42;;;;;;;20.40;5.22;;;7.00;99.90;;;;;;5006517;28;20033;-90
2023/12/20 12:03:01;;;;;;;;;;;;;;;;;;;;;
2023/12/20 12:15:33;;;;;;;25.58;7.75;;;6.90;99.90;;;;;;4894901;29;20050;-88
2023/12/20 12:17:59;;;;;;;12.35;3.60;;;6.90;99.90;;;;;;4899685;29;20040;-89
2023/12/20 12:20:27;;;;;;;16.85;4.22;;;6.90;99.90;;;;;;4922172;28;20046;-88
2023/12/20 12:23:03;;;;;;;13.90;4.15;;;7.00;99.90;;;;;;4947678;28;20027;-87
2023/12/20 12:25:30;;;;;;;28.80;4.43;;;6.90;99.90;;;;;;5000794;28;20033;-85
2023/12/20 12:28:08;;;;;;;8.95;3.58;;;7.00;99.90;;;;;;4962914;28;20097;-85
2023/12/20 12:30:35;;;;;;;13.20;3.90;;;7.00;99.90;;;;;;4984403;28;20056;-83
2023/12/20 12:33:01;;;;;;;12.25;3.85;;;6.90;99.90;;;;;;4996212;28;20036;-82
2023/12/20 12:35:26;;;;;;;17.45;4.55;;;6.90;99.90;;;;;;5015203;28;20041;-83
2023/12/20 12:37:52;;;;;;;7.40;4.63;;;6.90;99.90;;;;;;5015197;28;20468;-82
2023/12/20 12:40:21;;;;;;;9.25;3.50;;;6.90;99.90;;;;;;5017908;28;20033;-82
2023/12/20 12:42:48;;;;;;;10.57;2.83;;;6.90;99.90;;;;;;5021813;28;20055;-82
2023/12/20 12:45:15;;;;;;;15.27;3.97;;;6.90;99.90;;;;;;5019029;28;20041;-82
2023/12/20 12:47:41;;;;;;;22.23;5.10;;;6.90;99.90;;;;;;5011130;28;20050;-83
2023/12/20 12:50:07;;;;;;;13.15;3.70;;;7.00;99.90;;;;;;5031269;28;20040;-80
2023/12/20 12:52:32;;;;;;;18.73;5.35;;;7.00;99.90;;;;;;4999105;28;20063;-80
2023/12/20 12:54:58;;;;;;;11.65;3.85;;;7.00;99.90;;;;;;5014316;28;20040;-80
2023/12/20 12:57:25;;;;;;;14.13;3.95;;;7.10;99.90;;;;;;5015937;28;20041;-82
2023/12/20 12:59:52;;;;;;;7.15;2.88;;;7.10;99.90;;;;;;5000325;28;20037;-82
2023/12/20 13:02:18;;;;;;;9.35;3.45;;;7.20;99.90;;;;;;5033333;28;20037;-82
2023/12/20 13:04:43;;;;;;;14.40;4.55;;;7.20;99.90;;;;;;5013663;28;20033;-81
2023/12/20 13:07:11;;;;;;;14.05;4.35;;;7.20;99.90;;;;;;5014860;28;20036;-81